Time;durP1;ratioP1;P1;durP2;ratioP2;P2;SDS_P1;SDS_P2;PMS_P1;PMS_P2;Temp;Humidity;BMP_temperature;BMP_pressure;BME280_temperature;BME280_humidity;BME280_pressure;Samples;Min_cycle;Max_cycle;Signal;HPM_P1;HPM_P2
2022/04/05 00:00:39;;;;;;;16.23;10.57;;;;;;;7.69;54.81;99318.78;5005495;28;20400;-88
2022/04/05 00:03:05;;;;;;;19.45;11.00;;;;;;;7.69;54.71;99324.06;5043487;28;20044;-87
2022/04/05 00:05:32;;;;;;;20.30;10.10;;;;;;;7.65;55.06;99309.44;5051129;28;20135;-87
2022/04/05 00:07:59;;;;;;;19.80;9.75;;;;;;;7.66;55.08;99313.75;5052126;28;20056;-87
2022/04/05 00:10:26;;;;;;;19.48;10.75;;;;;;;7.70;55.58;99316.97;5029145;28;20105;-88
2022/04/05 00:12:53;;;;;;;20.27;10.38;;;;;;;7.68;55.40;99309.16;5028537;28;20518;-87
2022/04/05 00:15:20;;;;;;;18.33;10.38;;;;;;;7.66;55.78;99304.97;5018226;28;20537;-86
2022/04/05 00:17:47;;;;;;;15.00;9.77;;;;;;;7.66;55.80;99307.63;5008275;28;20430;-88
2022/04/05 00:20:14;;;;;;;16.10;9.95;;;;;;;7.66;55.95;99304.97;5033664;28;20045;-87
2022/04/05 00:22:41;;;;;;;18.85;11.13;;;;;;;7.59;56.28;99302.03;5004797;28;20044;-88
2022/04/05 00:25:07;;;;;;;17.67;10.43;;;;;;;7.59;56.49;99292.28;5002972;28;20044;-89
2022/04/05 00:27:36;;;;;;;16.73;9.98;;;;;;;7.61;56.45;99300.94;5041857;28;20052;-87
2022/04/05 00:30:03;;;;;;;17.85;10.07;;;;;;;7.64;56.88;99299.84;5043863;28;20052;-87
2022/04/05 00:32:30;;;;;;;20.35;10.63;;;;;;;7.60;56.93;99314.25;5004000;28;20411;-87
2022/04/05 00:34:57;;;;;;;19.17;11.35;;;;;;;7.62;57.06;99285.91;5012231;28;20075;-88
2022/04/05 00:37:23;;;;;;;21.63;11.52;;;;;;;7.63;57.00;99295.50;5037993;28;20049;-86
2022/04/05 00:39:50;;;;;;;20.65;11.32;;;;;;;7.61;56.78;99284.25;5028175;28;20040;-87
2022/04/05 00:42:17;;;;;;;17.95;11.02;;;;;;;7.59;57.54;99300.22;5025226;28;20067;-87
2022/04/05 00:44:44;;;;;;;17.48;10.25;;;;;;;7.61;57.43;99295.66;5035939;28;20044;-88
2022/04/05 00:47:18;;;;;;;20.08;10.30;;;;;;;7.56;57.51;99297.00;5028904;28;20411;-88
2022/04/05 00:49:46;;;;;;;17.65;11.23;;;;;;;7.56;57.60;99307.59;5020646;28;20053;-88
2022/04/05 00:52:14;;;;;;;20.65;11.63;;;;;;;7.60;57.86;99287.84;5005820;28;21518;-88
2022/04/05 00:54:42;;;;;;;19.67;11.73;;;;;;;7.57;57.79;99294.22;5008895;28;20041;-87
2022/04/05 00:57:11;;;;;;;19.52;11.18;;;;;;;7.59;58.38;99283.53;5015440;28;20131;-87
2022/04/05 00:59:43;;;;;;;18.85;10.70;;;;;;;7.51;58.07;99299.22;5005267;28;20100;-88
2022/04/05 01:02:16;;;;;;;22.70;11.43;;;;;;;7.46;58.98;99293.47;5002699;28;20492;-88
2022/04/05 01:04:44;;;;;;;26.20;11.20;;;;;;;7.50;58.38;99285.13;5039437;28;20056;-83
2022/04/05 01:07:17;;;;;;;22.58;12.43;;;;;;;7.53;58.63;99286.69;5020045;28;20037;-83
2022/04/05 01:09:44;;;;;;;21.08;11.27;;;;;;;7.49;58.87;99278.19;4997813;28;20057;-82
2022/04/05 01:12:12;;;;;;;21.38;11.63;;;;;;;7.47;58.88;99277.47;5021796;28;20127;-80
2022/04/05 01:14:41;;;;;;;22.45;12.05;;;;;;;7.38;59.60;99278.28;5040974;28;20050;-81
2022/04/05 01:17:08;;;;;;;24.95;12.65;;;;;;;7.45;59.46;99276.75;5027667;28;20045;-80
2022/04/05 01:19:37;;;;;;;20.77;11.43;;;;;;;7.47;59.48;99274.84;5023760;28;20045;-80
2022/04/05 01:22:03;;;;;;;21.40;11.93;;;;;;;7.43;58.89;99273.44;4984738;28;20033;-80
2022/04/05 01:24:43;;;;;;;23.70;11.95;;;;;;;7.36;59.78;99267.81;5000591;28;20044;-80
2022/04/05 01:27:16;;;;;;;22.30;11.85;;;;;;;7.44;58.99;99268.97;5007287;28;20083;-80
2022/04/05 01:29:43;;;;;;;;;;;;;;;7.26;59.78;99277.47;5010488;28;20052;-80
2022/04/05 01:32:09;;;;;;;21.20;11.30;;;;;;;7.36;59.07;99278.38;5040422;28;19927;-81
2022/04/05 01:34:37;;;;;;;19.50;11.38;;;;;;;7.47;59.15;99279.28;5012548;28;20048;-80
2022/04/05 01:37:07;;;;;;;23.60;11.73;;;;;;;7.43;59.28;99276.06;5044093;28;20045;-80
2022/04/05 01:39:35;;;;;;;19.63;12.23;;;;;;;7.44;59.30;99267.19;5007972;28;20045;-80
2022/04/05 01:42:06;;;;;;;23.83;13.18;;;;;;;7.43;59.29;99281.34;5011024;28;20524;-80
2022/04/05 01:44:34;;;;;;;19.52;11.93;;;;;;;7.39;59.74;99278.13;5011469;28;20045;-81
2022/04/05 01:47:11;;;;;;;21.17;12.32;;;;;;;7.35;59.88;99273.22;5021663;28;20464;-81
2022/04/05 01:49:40;;;;;;;22.63;12.10;;;;;;;7.35;60.08;99276.72;5023762;28;20496;-80
2022/04/05 01:52:09;;;;;;;21.65;11.82;;;;;;;7.33;60.36;99268.09;5043690;28;20045;-80
2022/04/05 01:54:37;;;;;;;23.58;12.27;;;;;;;7.35;60.58;99263.50;5006457;28;20042;-81
2022/04/05 01:57:04;;;;;;;20.42;11.52;;;;;;;7.37;60.14;99273.94;5031108;28;20053;-80
2022/04/05 01:59:32;;;;;;;25.85;11.98;;;;;;;7.40;60.45;99273.66;5013336;28;20058;-80
2022/04/05 02:01:59;;;;;;;22.42;11.55;;;;;;;7.39;60.38;99272.84;5032935;28;20041;-80
2022/04/05 02:04:26;;;;;;;27.20;12.15;;;;;;;7.40;60.33;99260.47;5045241;28;20068;-81
2022/04/05 02:06:53;;;;;;;25.13;12.98;;;;;;;7.39;60.39;99262.28;5029505;28;20040;-80
2022/04/05 02:09:19;;;;;;;23.65;12.65;;;;;;;7.42;60.49;99266.47;5023295;28;20036;-81
2022/04/05 02:11:47;;;;;;;21.90;11.93;;;;;;;7.42;60.00;99265.63;5026726;28;20040;-80
2022/04/05 02:14:31;;;;;;;31.17;14.05;;;;;;;7.47;60.48;99256.34;4980608;28;20052;-80
2022/04/05 02:17:02;;;;;;;23.45;11.70;;;;;;;7.43;60.16;99262.88;5009675;28;20060;-80
2022/04/05 02:19:29;;;;;;;22.65;12.35;;;;;;;7.42;60.23;99271.75;5027459;28;20048;-81
2022/04/05 02:21:57;;;;;;;25.50;12.55;;;;;;;7.39;60.63;99269.38;5027408;28;20495;-80
2022/04/05 02:24:25;;;;;;;24.30;12.13;;;;;;;7.34;61.01;99261.81;5025848;28;22399;-83
2022/04/05 02:26:53;;;;;;;25.38;13.13;;;;;;;7.37;60.38;99269.47;5014584;28;20103;-82
2022/04/05 02:29:22;;;;;;;26.45;11.85;;;;;;;7.38;60.65;99267.72;5007669;28;20037;-83
2022/04/05 02:31:56;;;;;;;28.83;12.55;;;;;;;7.39;60.71;99264.91;5028483;28;20945;-83
2022/04/05 02:34:23;;;;;;;22.25;11.88;;;;;;;7.36;60.71;99267.00;5039502;28;20049;-83
2022/04/05 02:36:57;;;;;;;25.05;12.32;;;;;;;7.36;60.83;99272.28;5013634;28;20060;-83
2022/04/05 02:39:24;;;;;;;30.25;13.75;;;;;;;7.34;61.21;99268.91;5022135;28;20047;-83
2022/04/05 02:41:55;;;;;;;30.10;12.52;;;;;;;7.30;61.07;99268.34;4994787;28;20049;-88
2022/04/05 02:44:23;;;;;;;24.80;12.98;;;;;;;7.31;61.07;99272.66;5010921;28;20052;-88
2022/04/05 02:46:56;;;;;;;28.52;13.93;;;;;;;7.29;61.18;99266.66;5004110;28;20048;-87
2022/04/05 02:49:26;;;;;;;22.60;12.07;;;;;;;7.32;61.07;99270.84;5022639;28;20118;-87
2022/04/05 02:51:53;;;;;;;30.45;13.30;;;;;;;7.28;61.57;99269.44;5029843;28;20120;-88
2022/04/05 02:54:27;;;;;;;31.42;14.57;;;;;;;7.26;61.46;99272.19;5050334;28;20158;-88
2022/04/05 02:56:57;;;;;;;28.52;13.30;;;;;;;7.27;61.44;99284.44;5061658;28;20887;-88
2022/04/05 02:59:29;;;;;;;31.92;14.15;;;;;;;7.24;62.09;99279.41;5025360;28;20048;-87
2022/04/05 03:01:56;;;;;;;34.22;13.38;;;;;;;7.28;61.53;99267.63;5044369;28;20041;-87
2022/04/05 03:04:23;;;;;;;26.80;13.07;;;;;;;7.28;61.35;99275.56;5026722;28;20045;-87
2022/04/05 03:06:51;;;;;;;31.45;13.82;;;;;;;7.29;61.62;99268.47;5040888;28;20050;-84
2022/04/05 03:09:21;;;;;;;31.38;14.75;;;;;;;7.29;61.34;99273.75;5031413;28;20154;-88
2022/04/05 03:11:51;;;;;;;29.17;14.18;;;;;;;7.29;61.32;99276.38;5029204;28;20403;-88
2022/04/05 03:14:18;;;;;;;27.90;14.55;;;;;;;7.27;61.50;99273.03;5041461;28;20044;-88
2022/04/05 03:16:46;;;;;;;30.00;14.23;;;;;;;7.28;61.63;99269.44;5038388;28;20061;-87
2022/04/05 03:19:18;;;;;;;22.88;11.93;;;;;;;7.26;61.61;99268.72;5035828;28;20059;-87
2022/04/05 03:21:49;;;;;;;28.08;13.15;;;;;;;7.24;61.91;99268.00;5024966;28;20072;-87
2022/04/05 03:24:43;;;;;;;32.40;16.02;;;;;;;7.15;62.40;99261.72;5030767;28;20620;-86
2022/04/05 03:27:13;;;;;;;34.75;17.98;;;;;;;7.22;62.11;99259.38;4990533;28;20556;-86
2022/04/05 03:29:42;;;;;;;27.23;13.93;;;;;;;7.23;61.76;99261.06;5039354;28;20052;-87
2022/04/05 03:32:11;;;;;;;29.00;13.98;;;;;;;7.22;61.73;99256.72;5028214;28;20147;-87
2022/04/05 03:34:39;;;;;;;31.08;14.27;;;;;;;7.21;62.34;99247.16;5034920;28;20054;-86
2022/04/05 03:37:06;;;;;;;27.83;13.60;;;;;;;7.20;61.88;99253.38;5013981;28;20131;-86
2022/04/05 03:39:33;;;;;;;30.77;14.98;;;;;;;7.19;62.41;99263.09;5023283;28;20057;-87
2022/04/05 03:42:01;;;;;;;31.25;14.90;;;;;;;7.18;62.81;99258.81;5024070;28;20106;-87
2022/04/05 03:44:27;;;;;;;36.63;15.70;;;;;;;7.18;63.09;99253.53;5021322;28;20052;-86
2022/04/05 03:46:57;;;;;;;35.15;15.10;;;;;;;7.18;63.09;99267.56;5022389;28;20053;-87
2022/04/05 03:49:26;;;;;;;34.72;15.43;;;;;;;7.17;63.80;99278.25;5049708;28;20512;-87
2022/04/05 03:51:56;;;;;;;39.42;16.85;;;;;;;7.14;64.09;99262.66;5020992;28;20056;-87
2022/04/05 03:54:23;;;;;;;31.75;13.95;;;;;;;7.15;63.62;99269.63;5016774;28;20055;-85
2022/04/05 03:56:54;;;;;;;40.17;16.08;;;;;;;7.08;63.78;99265.81;5034541;28;20075;-83
2022/04/05 03:59:22;;;;;;;28.17;13.73;;;;;;;7.09;63.31;99263.03;5002038;28;20041;-85
2022/04/05 04:01:49;;;;;;;36.47;16.95;;;;;;;7.11;63.67;99260.28;5027624;28;20103;-84
2022/04/05 04:04:17;;;;;;;36.28;16.95;;;;;;;7.12;64.15;99267.22;5026808;28;20044;-84
2022/04/05 04:06:47;;;;;;;33.63;15.93;;;;;;;7.11;64.47;99266.38;5018842;28;20063;-84
2022/04/05 04:09:15;;;;;;;29.02;13.57;;;;;;;7.12;64.05;99259.31;5032028;28;20045;-84
2022/04/05 04:11:44;;;;;;;28.58;13.60;;;;;;;7.11;63.87;99255.84;5039787;28;20495;-85
2022/04/05 04:14:19;;;;;;;31.67;14.23;;;;;;;6.99;66.22;99261.28;5040365;28;20052;-84
2022/04/05 04:16:48;;;;;;;31.42;14.13;;;;;;;7.09;63.79;99260.41;5038310;28;20041;-84
2022/04/05 04:19:15;;;;;;;35.30;14.27;;;;;;;7.07;63.92;99256.22;5011408;28;20040;-85
2022/04/05 04:21:43;;;;;;;32.03;14.68;;;;;;;7.08;63.71;99253.44;5021938;28;20044;-85
2022/04/05 04:24:09;;;;;;;35.42;15.15;;;;;;;7.07;64.31;99270.28;5028071;28;20495;-81
2022/04/05 04:26:37;;;;;;;29.25;14.20;;;;;;;7.09;64.22;99264.84;5040170;28;20094;-81
2022/04/05 04:29:04;;;;;;;32.47;13.90;;;;;;;7.09;63.86;99265.69;5034922;28;20052;-81
2022/04/05 04:31:31;;;;;;;39.92;16.63;;;;;;;7.11;63.71;99252.34;5002479;28;20048;-81
2022/04/05 04:33:59;;;;;;;35.08;17.05;;;;;;;7.08;64.13;99256.09;5039217;28;20714;-81
2022/04/05 04:36:26;;;;;;;32.38;16.45;;;;;;;7.07;64.43;99254.44;5041579;28;20051;-81
2022/04/05 04:38:54;;;;;;;29.20;14.18;;;;;;;7.07;64.10;99251.78;5042873;28;20053;-82
2022/04/05 04:41:22;;;;;;;31.30;13.82;;;;;;;7.09;64.00;99256.94;5043851;28;20045;-81
2022/04/05 04:43:50;;;;;;;30.70;13.75;;;;;;;7.14;64.38;99257.38;5023361;28;20048;-82
2022/04/05 04:46:17;;;;;;;28.23;13.68;;;;;;;7.10;64.40;99250.69;5036975;28;20094;-81
2022/04/05 04:48:43;;;;;;;32.05;13.40;;;;;;;7.08;64.15;99253.44;5042393;28;20040;-81
2022/04/05 04:51:12;;;;;;;28.38;13.27;;;;;;;7.04;64.54;99256.47;5014215;28;20044;-81
2022/04/05 04:53:39;;;;;;;29.52;14.23;;;;;;;7.09;64.23;99255.13;5010514;28;20404;-82
2022/04/05 04:56:06;;;;;;;36.28;14.90;;;;;;;7.08;64.49;99257.91;5035292;28;20041;-81
2022/04/05 04:58:37;;;;;;;32.17;15.07;;;;;;;7.06;64.62;99250.09;5009536;28;20070;-82
2022/04/05 05:01:03;;;;;;;30.52;15.35;;;;;;;7.10;64.86;99254.16;5038872;28;20052;-82
2022/04/05 05:03:31;;;;;;;36.63;16.77;;;;;;;7.08;64.70;99256.09;5040556;28;20045;-81
2022/04/05 05:05:58;;;;;;;34.10;16.52;;;;;;;7.04;64.81;99267.84;5026541;28;20045;-81
2022/04/05 05:08:27;;;;;;;36.78;15.35;;;;;;;7.02;65.13;99264.53;5026899;28;20131;-81
2022/04/05 05:10:54;;;;;;;37.15;17.98;;;;;;;7.10;65.22;99266.53;5041888;28;20048;-81
2022/04/05 05:13:21;;;;;;;37.70;16.17;;;;;;;7.04;65.37;99267.03;5053263;28;20414;-82
2022/04/05 05:15:49;;;;;;;33.30;18.42;;;;;;;7.02;65.13;99272.47;5045379;28;20079;-82
2022/04/05 05:18:16;;;;;;;37.75;17.90;;;;;;;7.06;65.45;99279.13;5032048;28;20122;-82
2022/04/05 05:20:43;;;;;;;36.60;17.40;;;;;;;7.01;65.42;99264.66;5042992;28;20045;-81
2022/04/05 05:23:10;;;;;;;35.28;18.83;;;;;;;7.01;65.65;99273.41;5042826;28;21067;-82
2022/04/05 05:25:37;;;;;;;44.97;19.88;;;;;;;7.00;65.97;99277.00;5032493;28;20037;-81
2022/04/05 05:28:04;;;;;;;40.70;17.75;;;;;;;7.00;65.85;99271.75;5020745;28;20033;-82
2022/04/05 05:30:31;;;;;;;39.53;20.10;;;;;;;7.03;65.86;99268.00;5035625;28;20056;-81
2022/04/05 05:32:58;;;;;;;42.88;19.58;;;;;;;6.97;65.87;99264.03;5013242;28;20044;-81
2022/04/05 05:35:26;;;;;;;33.47;18.27;;;;;;;6.95;66.01;99281.84;5053655;28;20051;-81
2022/04/05 05:37:53;;;;;;;43.58;21.25;;;;;;;6.91;66.50;99286.50;5041785;28;20047;-82
2022/04/05 05:40:20;;;;;;;38.97;18.15;;;;;;;6.88;66.28;99273.56;5029939;28;20052;-81
2022/04/05 05:42:47;;;;;;;38.33;18.75;;;;;;;6.88;66.55;99293.84;5033347;28;20396;-81
2022/04/05 05:45:14;;;;;;;41.17;18.35;;;;;;;6.91;66.32;99280.41;5060897;28;20048;-81
2022/04/05 05:47:41;;;;;;;32.78;17.80;;;;;;;6.89;66.39;99291.06;5044248;28;20131;-82
2022/04/05 05:50:10;;;;;;;43.67;18.52;;;;;;;6.92;66.58;99277.66;5050491;28;20041;-81
2022/04/05 05:52:43;;;;;;;39.55;18.33;;;;;;;6.88;66.47;99293.84;5041485;28;20044;-81
2022/04/05 05:55:11;;;;;;;37.13;18.45;;;;;;;6.85;66.77;99284.38;4999854;28;20045;-81
2022/04/05 05:57:38;;;;;;;33.65;17.23;;;;;;;6.87;66.63;99284.25;5046093;28;20048;-81
2022/04/05 06:00:10;;;;;;;40.45;18.35;;;;;;;6.91;67.23;99293.59;5039653;28;20106;-81
2022/04/05 06:02:41;;;;;;;41.88;18.45;;;;;;;6.82;67.13;99305.75;5054910;28;20395;-81
2022/04/05 06:05:09;;;;;;;41.70;17.90;;;;;;;6.85;67.08;99294.13;5027827;28;20040;-81
2022/04/05 06:07:41;;;;;;;41.58;18.73;;;;;;;6.85;67.19;99302.03;5026219;28;20063;-81
2022/04/05 06:10:09;;;;;;;46.63;20.33;;;;;;;6.87;67.20;99300.94;5053976;28;20049;-81
2022/04/05 06:12:38;;;;;;;44.33;18.88;;;;;;;6.89;66.92;99291.06;5021607;28;20128;-81
2022/04/05 06:15:10;;;;;;;40.58;18.70;;;;;;;6.87;67.21;99298.31;5029279;28;20044;-81
2022/04/05 06:17:38;;;;;;;43.63;19.63;;;;;;;6.91;67.85;99310.25;5020511;28;20052;-81
2022/04/05 06:20:05;;;;;;;54.97;22.25;;;;;;;6.89;67.52;99314.81;5038152;28;20072;-81
2022/04/05 06:22:46;;;;;;;42.10;19.15;;;;;;;6.78;68.94;99306.13;5037103;28;20036;-81
2022/04/05 06:25:15;;;;;;;59.08;23.23;;;;;;;6.89;67.76;99296.34;5021629;28;20033;-81
2022/04/05 06:27:42;;;;;;;48.40;20.10;;;;;;;6.91;67.73;99302.34;5010196;28;20045;-81
2022/04/05 06:30:10;;;;;;;48.22;22.42;;;;;;;6.92;68.13;99295.25;5042036;28;20055;-81
2022/04/05 06:32:37;;;;;;;44.15;19.73;;;;;;;6.88;68.04;99299.97;5038499;28;20099;-81
2022/04/05 06:35:06;;;;;;;40.85;17.90;;;;;;;6.90;67.98;99299.84;5032721;28;20640;-81
2022/04/05 06:37:33;;;;;;;39.17;17.23;;;;;;;6.88;68.48;99301.78;5041828;28;20052;-81
2022/04/05 06:39:59;;;;;;;41.10;17.75;;;;;;;6.84;68.10;99314.38;5022281;28;20492;-80
2022/04/05 06:42:26;;;;;;;39.33;17.67;;;;;;;6.82;68.32;99300.47;5045297;28;20373;-79
2022/04/05 06:44:53;;;;;;;35.65;16.60;;;;;;;6.84;68.44;99319.63;5022366;28;20044;-80
2022/04/05 06:47:20;;;;;;;34.80;16.13;;;;;;;6.83;68.36;99317.97;5016043;28;20118;-81
2022/04/05 06:49:47;;;;;;;34.70;16.67;;;;;;;6.83;68.44;99320.63;5014522;28;20040;-79
2022/04/05 06:52:14;;;;;;;36.15;17.15;;;;;;;6.88;68.54;99321.09;5044392;28;20053;-79
2022/04/05 06:54:41;;;;;;;39.58;17.55;;;;;;;6.84;68.21;99327.56;5024576;28;20071;-80
2022/04/05 06:57:08;;;;;;;40.35;18.30;;;;;;;6.85;68.77;99316.06;5026316;28;20424;-79
2022/04/05 06:59:40;;;;;;;42.70;19.65;;;;;;;6.84;68.38;99324.91;5042789;28;20055;-79
2022/04/05 07:02:07;;;;;;;40.05;18.80;;;;;;;6.81;69.06;99324.34;5043096;28;20127;-79
2022/04/05 07:04:34;;;;;;;35.60;16.33;;;;;;;6.76;68.83;99326.50;5023730;28;20060;-79
2022/04/05 07:07:00;;;;;;;40.70;17.98;;;;;;;6.78;68.78;99316.69;5024887;28;20134;-79
2022/04/05 07:09:27;;;;;;;33.13;16.17;;;;;;;6.79;68.68;99323.63;5019312;28;20053;-79
2022/04/05 07:11:59;;;;;;;42.23;19.10;;;;;;;6.79;68.68;99318.34;5051063;28;20082;-79
2022/04/05 07:14:26;;;;;;;33.28;16.63;;;;;;;6.81;68.73;99329.63;5040362;28;20052;-79
2022/04/05 07:16:53;;;;;;;38.88;17.98;;;;;;;6.87;69.22;99323.81;5030573;28;20056;-79
2022/04/05 07:19:20;;;;;;;39.58;17.27;;;;;;;6.84;69.06;99332.00;5022152;28;20066;-79
2022/04/05 07:21:47;;;;;;;37.60;17.42;;;;;;;6.84;68.96;99327.56;5024729;28;20075;-80
2022/04/05 07:24:13;;;;;;;38.13;19.45;;;;;;;6.86;69.00;99319.53;5053246;28;20100;-79
2022/04/05 07:26:40;;;;;;;37.17;18.23;;;;;;;6.89;69.13;99337.75;5053139;28;20052;-79
2022/04/05 07:29:07;;;;;;;40.47;18.52;;;;;;;6.86;69.08;99332.72;5037626;28;20044;-80
2022/04/05 07:31:34;;;;;;;38.58;18.75;;;;;;;6.87;69.20;99324.69;5024442;28;20916;-79
2022/04/05 07:34:01;;;;;;;45.78;19.92;;;;;;;6.92;69.40;99329.56;5037859;28;20599;-79
2022/04/05 07:36:28;;;;;;;42.35;19.17;;;;;;;6.94;69.31;99327.66;5030286;28;20041;-80
2022/04/05 07:38:54;;;;;;;39.15;19.73;;;;;;;6.92;69.56;99322.53;5022994;28;20154;-79
2022/04/05 07:41:21;;;;;;;41.95;19.35;;;;;;;6.97;69.43;99330.03;5037109;28;20136;-79
2022/04/05 07:43:48;;;;;;;40.42;18.63;;;;;;;6.96;69.45;99329.19;5026673;28;20388;-80
2022/04/05 07:46:15;;;;;;;41.83;20.73;;;;;;;6.96;69.78;99326.56;5030053;28;20040;-79
2022/04/05 07:48:42;;;;;;;42.33;19.35;;;;;;;6.95;69.69;99330.19;5021996;28;20047;-80
2022/04/05 07:51:09;;;;;;;43.22;19.77;;;;;;;6.98;69.87;99328.25;5035932;28;20052;-80
2022/04/05 07:53:36;;;;;;;39.35;19.55;;;;;;;6.96;69.87;99336.28;5042627;28;20419;-79
2022/04/05 07:56:04;;;;;;;47.80;22.70;;;;;;;6.97;70.12;99337.97;5052696;28;20045;-79
2022/04/05 07:58:30;;;;;;;40.85;20.10;;;;;;;6.97;70.05;99327.41;5038593;28;20116;-80
2022/04/05 08:00:57;;;;;;;36.67;19.17;;;;;;;6.98;69.91;99334.38;5045419;28;20055;-79
2022/04/05 08:03:24;;;;;;;40.13;17.40;;;;;;;7.04;69.95;99322.47;5057776;28;20055;-79
2022/04/05 08:05:51;;;;;;;39.42;19.20;;;;;;;7.01;70.02;99328.00;5030991;28;20837;-80
2022/04/05 08:08:18;;;;;;;41.28;19.98;;;;;;;7.02;70.27;99343.72;5041232;28;20049;-79
2022/04/05 08:11:05;;;;;;;39.25;19.80;;;;;;;7.01;70.00;99328.84;5025198;28;20036;-79
2022/04/05 08:13:32;;;;;;;44.08;19.17;;;;;;;7.01;70.10;99331.47;5023998;28;20074;-83
2022/04/05 08:15:58;;;;;;;37.20;18.27;;;;;;;7.04;70.21;99333.03;5020072;28;20187;-86
2022/04/05 08:18:25;;;;;;;39.78;20.35;;;;;;;7.00;70.17;99344.81;5056246;28;20051;-86
2022/04/05 08:20:55;;;;;;;38.95;18.45;;;;;;;7.01;70.18;99349.94;5020362;28;20037;-86
2022/04/05 08:23:22;;;;;;;40.22;18.13;;;;;;;7.01;70.39;99336.75;5025519;28;20044;-87
2022/04/05 08:25:49;;;;;;;41.25;17.38;;;;;;;7.02;70.44;99349.00;5039409;28;20518;-86
2022/04/05 08:28:16;;;;;;;47.58;19.73;;;;;;;7.02;70.67;99341.09;5048755;28;20048;-85
2022/04/05 08:30:43;;;;;;;43.40;20.58;;;;;;;7.02;70.67;99333.16;5038118;28;20571;-81
2022/04/05 08:33:10;;;;;;;36.17;17.25;;;;;;;7.02;70.74;99342.88;5033746;28;20068;-81
2022/04/05 08:35:37;;;;;;;36.90;16.67;;;;;;;7.04;70.73;99344.41;5037934;28;20111;-82
2022/04/05 08:38:04;;;;;;;37.15;16.63;;;;;;;7.07;71.01;99343.31;5025500;28;20041;-81
2022/04/05 08:40:31;;;;;;;38.72;17.88;;;;;;;7.09;70.92;99339.59;5054992;28;20041;-81
2022/04/05 08:42:58;;;;;;;39.30;17.15;;;;;;;7.12;71.11;99339.38;5057193;28;20045;-81
2022/04/05 08:45:26;;;;;;;37.30;17.25;;;;;;;7.12;71.04;99339.38;5036095;28;20048;-82
2022/04/05 08:47:55;;;;;;;37.00;16.52;;;;;;;7.14;70.83;99337.41;5032223;28;20462;-81
2022/04/05 08:50:27;;;;;;;34.65;16.42;;;;;;;7.14;71.36;99339.22;5039051;28;20480;-82
2022/04/05 08:52:56;;;;;;;39.40;18.98;;;;;;;7.18;71.34;99346.78;5052093;28;20051;-82
2022/04/05 08:55:23;;;;;;;40.15;18.15;;;;;;;7.18;71.79;99344.13;5045617;28;20069;-81
2022/04/05 08:57:50;;;;;;;37.80;16.48;;;;;;;7.20;71.77;99343.16;5049879;28;20044;-81
2022/04/05 09:00:19;;;;;;;35.00;18.00;;;;;;;7.24;71.83;99345.44;5022927;28;20051;-81
2022/04/05 09:03:01;;;;;;;43.40;18.77;;;;;;;7.22;71.65;99336.78;5014367;28;20386;-82
2022/04/05 09:05:31;;;;;;;41.17;20.05;;;;;;;7.23;72.38;99327.91;5007461;28;20053;-82
2022/04/05 09:08:12;;;;;;;39.70;18.08;;;;;;;7.24;72.69;99334.88;4996626;28;20037;-82
2022/04/05 09:10:40;;;;;;;39.03;17.52;;;;;;;7.34;72.07;99330.50;5015416;28;20099;-82
2022/04/05 09:13:11;;;;;;;37.90;16.48;;;;;;;7.33;72.22;99312.16;5046543;28;20049;-81
2022/04/05 09:15:41;;;;;;;44.10;17.38;;;;;;;7.41;72.62;99325.56;5039979;28;20052;-81
2022/04/05 09:18:07;;;;;;;35.63;15.88;;;;;;;7.38;72.50;99333.75;5037504;28;20045;-81
2022/04/05 09:20:48;;;;;;;33.65;15.43;;;;;;;7.36;72.59;99335.66;5017143;28;20586;-82
2022/04/05 09:23:28;;;;;;;38.42;17.83;;;;;;;7.39;73.22;99335.41;5023339;28;20040;-81
2022/04/05 09:26:04;;;;;;;40.78;16.05;;;;;;;7.48;72.71;99333.78;5017237;28;20129;-81
2022/04/05 09:28:32;;;;;;;39.72;16.27;;;;;;;7.53;73.12;99329.81;5039413;28;20472;-81
2022/04/05 09:31:00;;;;;;;33.08;15.77;;;;;;;7.53;73.17;99327.16;5027858;28;20045;-81
2022/04/05 09:33:29;;;;;;;31.58;16.48;;;;;;;7.56;73.35;99326.06;4998014;28;20474;-82
2022/04/05 09:36:11;;;;;;;37.40;16.45;;;;;;;7.47;73.52;99327.66;5012067;28;20037;-81
2022/04/05 09:38:40;;;;;;;39.83;17.70;;;;;;;7.59;73.46;99331.09;4991275;28;20400;-81
2022/04/05 09:41:14;;;;;;;40.20;16.35;;;;;;;7.65;74.03;99327.09;5019248;28;20044;-81
2022/04/05 09:43:56;;;;;;;41.03;17.80;;;;;;;7.62;73.80;99320.25;5034264;28;20613;-82
2022/04/05 09:46:25;;;;;;;32.05;14.40;;;;;;;7.68;73.71;99311.81;4992228;28;20044;-82
2022/04/05 09:49:04;;;;;;;35.85;16.17;;;;;;;7.71;74.47;99313.34;5028876;28;20064;-82
2022/04/05 09:51:36;;;;;;;42.22;17.52;;;;;;;7.71;74.01;99316.84;5016243;28;20045;-81
2022/04/05 09:54:02;;;;;;;35.28;15.50;;;;;;;7.66;75.03;99316.41;5018331;28;20042;-82
2022/04/05 09:56:34;;;;;;;36.65;16.08;;;;;;;7.75;74.31;99320.06;5047103;28;20071;-81
2022/04/05 09:59:06;;;;;;;38.55;16.70;;;;;;;7.79;74.26;99332.06;5034832;28;20119;-81
2022/04/05 10:01:36;;;;;;;36.37;16.23;;;;;;;7.83;74.65;99320.25;5036312;28;20045;-81
2022/04/05 10:04:11;;;;;;;35.60;16.30;;;;;;;7.81;74.58;99330.09;5045812;28;20461;-81
2022/04/05 10:06:43;;;;;;;39.17;16.48;;;;;;;7.84;74.45;99332.50;5020990;28;20598;-81
2022/04/05 10:09:14;;;;;;;32.88;16.23;;;;;;;7.81;74.41;99330.09;5013549;28;20041;-81
2022/04/05 10:11:42;;;;;;;36.35;16.25;;;;;;;7.87;74.14;99337.53;5032489;28;20052;-81
2022/04/05 10:14:13;;;;;;;33.58;16.90;;;;;;;7.97;74.55;99329.66;5040832;28;20084;-81
2022/04/05 10:16:40;;;;;;;36.53;16.65;;;;;;;7.91;74.33;99319.59;5010867;28;20044;-81
2022/04/05 10:19:10;;;;;;;34.33;15.90;;;;;;;7.86;74.29;99333.22;5013930;28;20045;-81
2022/04/05 10:21:39;;;;;;;36.22;16.40;;;;;;;7.89;74.13;99332.13;5036930;28;20443;-81
2022/04/05 10:24:06;;;;;;;32.10;15.25;;;;;;;7.88;74.32;99325.97;5047470;28;20044;-81
2022/04/05 10:26:37;;;;;;;32.33;15.65;;;;;;;7.88;74.45;99338.34;5047721;28;20039;-81
2022/04/05 10:29:06;;;;;;;35.22;16.83;;;;;;;7.94;74.15;99338.69;5023401;28;20049;-81
2022/04/05 10:31:39;;;;;;;36.63;16.77;;;;;;;7.95;74.25;99323.66;5037091;28;20063;-81
2022/04/05 10:34:22;;;;;;;33.53;15.68;;;;;;;7.87;74.04;99326.94;5051965;28;20040;-81
2022/04/05 10:37:12;;;;;;;33.78;16.25;;;;;;;7.83;74.00;99323.72;5025264;28;20040;-80
2022/04/05 10:39:40;;;;;;;35.33;15.63;;;;;;;7.94;74.06;99330.75;4994739;28;20040;-81
2022/04/05 10:42:10;;;;;;;31.85;15.20;;;;;;;7.93;74.29;99329.06;5031663;28;20536;-81
2022/04/05 10:44:40;;;;;;;34.53;16.30;;;;;;;7.93;73.76;99323.78;5028371;28;20488;-81
2022/04/05 10:47:07;;;;;;;30.83;14.18;;;;;;;7.95;73.78;99340.34;5013969;28;20038;-81
2022/04/05 10:49:56;;;;;;;33.28;15.57;;;;;;;8.00;73.87;99339.97;4967078;28;20052;-81
2022/04/05 10:52:23;;;;;;;28.40;14.73;;;;;;;7.95;74.17;99343.00;5020834;28;20056;-81
2022/04/05 10:54:52;;;;;;;37.08;16.33;;;;;;;7.96;74.08;99334.09;5038720;28;20041;-81
2022/04/05 10:57:32;;;;;;;34.53;16.10;;;;;;;7.97;74.01;99350.81;5005725;28;20128;-81
2022/04/05 11:00:11;;;;;;;35.15;16.55;;;;;;;7.89;74.11;99346.16;5049054;28;20649;-81
2022/04/05 11:02:44;;;;;;;29.85;15.18;;;;;;;7.91;73.52;99353.94;5033427;28;20059;-81
2022/04/05 11:05:15;;;;;;;30.55;15.13;;;;;;;7.96;73.40;99343.81;5035626;28;20091;-81
2022/04/05 11:07:57;;;;;;;32.20;15.60;;;;;;;7.91;73.74;99346.88;5054336;28;20468;-81
2022/04/05 11:10:39;;;;;;;30.67;14.98;;;;;;;7.89;73.51;99346.16;5048018;28;20055;-82
2022/04/05 11:13:27;;;;;;;31.25;14.80;;;;;;;7.97;73.55;99356.09;5003929;28;20048;-82
2022/04/05 11:15:57;;;;;;;31.13;15.07;;;;;;;7.93;73.29;99346.72;5019732;28;20041;-81
2022/04/05 11:18:29;;;;;;;30.85;14.80;;;;;;;7.92;73.54;99353.00;5049104;28;20127;-81
2022/04/05 11:20:57;;;;;;;30.75;14.85;;;;;;;7.98;73.38;99345.38;5048389;28;20499;-81
2022/04/05 11:23:42;;;;;;;28.98;15.15;;;;;;;7.91;73.58;99338.94;5006676;28;20095;-81
2022/04/05 11:26:33;;;;;;;28.70;14.38;;;;;;;7.95;73.77;99340.34;5025689;28;20067;-81
2022/04/05 11:29:18;;;;;;;30.15;14.75;;;;;;;8.02;73.07;99340.66;5017971;28;20654;-81
2022/04/05 11:31:45;;;;;;;37.40;16.52;;;;;;;8.07;73.48;99346.41;5017954;28;20392;-82
2022/04/05 11:34:37;;;;;;;31.98;15.57;;;;;;;7.97;73.48;99349.00;5025983;28;20538;-81
2022/04/05 11:37:06;;;;;;;29.77;14.75;;;;;;;8.01;73.52;99342.47;5020639;28;20112;-81